createdAt,value
2022-08-19T00:01:57.451Z,47.70
2022-08-19T00:04:31.437Z,52.85
2022-08-19T00:06:59.703Z,55.58
2022-08-19T00:09:28.409Z,49.63
2022-08-19T00:11:57.824Z,49.75
2022-08-19T00:14:26.615Z,44.30
2022-08-19T00:16:55.361Z,41.78
2022-08-19T00:19:24.039Z,39.85
2022-08-19T00:21:51.960Z,42.35
2022-08-19T00:24:19.896Z,37.65
2022-08-19T00:26:47.499Z,33.15
2022-08-19T00:29:19.562Z,38.65
2022-08-19T00:31:47.622Z,37.00
2022-08-19T00:34:15.824Z,37.63
2022-08-19T00:36:43.924Z,35.78
2022-08-19T00:39:12.551Z,38.53
2022-08-19T00:41:40.916Z,35.60
2022-08-19T00:44:29.934Z,36.58
2022-08-19T00:47:00.012Z,40.55
2022-08-19T00:49:42.122Z,42.03
2022-08-19T00:52:15.576Z,43.13
2022-08-19T00:54:44.554Z,49.03
2022-08-19T00:57:16.594Z,42.92
2022-08-19T01:00:00.343Z,51.10
2022-08-19T01:02:30.592Z,47.22
2022-08-19T01:04:58.185Z,47.03
2022-08-19T01:07:25.282Z,43.92
2022-08-19T01:09:52.827Z,46.45
2022-08-19T01:12:20.305Z,45.22
2022-08-19T01:14:48.748Z,48.58
2022-08-19T01:17:17.544Z,46.58
2022-08-19T01:19:47.680Z,49.70
2022-08-19T01:22:53.391Z,48.67
2022-08-19T01:25:26.224Z,48.70
2022-08-19T01:27:54.747Z,39.08
2022-08-19T01:30:27.135Z,45.45
2022-08-19T01:32:54.926Z,48.45
2022-08-19T01:35:24.541Z,44.45
2022-08-19T01:37:57.457Z,48.17
2022-08-19T01:40:28.450Z,47.97
2022-08-19T01:42:56.022Z,55.60
2022-08-19T01:45:26.560Z,48.33
2022-08-19T01:48:01.444Z,44.03
2022-08-19T01:50:32.781Z,42.95
2022-08-19T01:53:03.439Z,39.63
2022-08-19T01:55:40.812Z,42.70
2022-08-19T01:58:16.357Z,46.70
2022-08-19T02:00:44.685Z,44.08
2022-08-19T02:03:12.622Z,45.00
2022-08-19T02:05:41.486Z,44.38
2022-08-19T02:08:08.858Z,49.33
2022-08-19T02:10:42.653Z,41.85
2022-08-19T02:13:10.822Z,39.60
2022-08-19T02:15:38.319Z,45.55
2022-08-19T02:18:05.742Z,40.63
2022-08-19T02:20:32.673Z,43.90
2022-08-19T02:22:59.569Z,40.40
2022-08-19T02:25:26.542Z,40.80
2022-08-19T02:27:53.782Z,41.80
2022-08-19T02:30:21.483Z,38.25
2022-08-19T02:32:48.480Z,39.35
2022-08-19T02:35:16.113Z,39.42
2022-08-19T02:38:03.174Z,35.47
2022-08-19T02:40:35.406Z,35.05
2022-08-19T02:43:09.260Z,37.92
2022-08-19T02:45:40.490Z,36.50
2022-08-19T02:48:21.079Z,39.95
2022-08-19T02:50:54.711Z,36.97
2022-08-19T02:53:27.761Z,40.53
2022-08-19T02:55:54.918Z,34.40
2022-08-19T02:58:25.333Z,34.08
2022-08-19T03:00:56.192Z,35.05
2022-08-19T03:03:24.375Z,38.38
2022-08-19T03:05:56.778Z,34.45
2022-08-19T03:08:26.126Z,34.42
2022-08-19T03:10:54.058Z,32.15
2022-08-19T03:13:21.251Z,31.45
2022-08-19T03:15:48.857Z,35.72
2022-08-19T03:18:18.016Z,35.55
2022-08-19T03:20:49.681Z,32.33
2022-08-19T03:23:18.352Z,32.90
2022-08-19T03:26:02.853Z,30.58
2022-08-19T03:28:35.640Z,24.95
2022-08-19T03:31:43.900Z,27.38
2022-08-19T03:33:59.789Z,27.85
2022-08-19T03:36:30.498Z,24.27
2022-08-19T03:39:04.060Z,26.65
2022-08-19T03:41:44.939Z,26.95
2022-08-19T03:44:16.601Z,32.78
2022-08-19T03:46:50.112Z,27.67
2022-08-19T03:49:28.279Z,28.40
2022-08-19T03:52:01.207Z,26.73
2022-08-19T03:54:29.260Z,25.05
2022-08-19T03:56:57.911Z,26.45
2022-08-19T03:59:36.358Z,28.02
2022-08-19T04:02:12.216Z,27.00
2022-08-19T04:04:44.643Z,26.02
2022-08-19T04:07:18.951Z,24.33
2022-08-19T04:09:48.852Z,29.25
2022-08-19T04:12:20.223Z,31.70
2022-08-19T04:14:47.427Z,25.48
2022-08-19T04:17:15.071Z,23.73
2022-08-19T04:19:43.889Z,25.35
2022-08-19T04:22:12.224Z,23.48
2022-08-19T04:24:39.397Z,24.92
2022-08-19T04:27:07.207Z,18.02
2022-08-19T04:29:34.808Z,21.77
2022-08-19T04:32:09.255Z,23.42
2022-08-19T04:34:37.597Z,24.33
2022-08-19T04:37:25.698Z,21.33
2022-08-19T04:40:10.871Z,22.98
2022-08-19T04:42:40.458Z,23.90
2022-08-19T04:45:12.283Z,23.65
2022-08-19T04:47:49.333Z,21.35
2022-08-19T04:50:27.375Z,20.73
2022-08-19T04:52:54.767Z,20.35
2022-08-19T04:55:21.928Z,21.08
2022-08-19T04:57:49.054Z,20.50
2022-08-19T05:00:16.166Z,23.50
2022-08-19T05:02:43.382Z,32.10
2022-08-19T05:05:10.553Z,25.10
2022-08-19T05:07:37.904Z,22.70
2022-08-19T05:10:07.048Z,22.63
2022-08-19T05:12:34.791Z,22.40
2022-08-19T05:15:04.812Z,25.73
2022-08-19T05:17:37.439Z,21.73
2022-08-19T05:20:26.910Z,30.20
2022-08-19T05:22:53.995Z,25.00
2022-08-19T05:25:22.804Z,26.17
2022-08-19T05:27:50.209Z,23.00
2022-08-19T05:30:17.813Z,25.38
2022-08-19T05:32:45.126Z,24.38
2022-08-19T05:35:12.996Z,26.33
2022-08-19T05:37:43.842Z,26.05
2022-08-19T05:40:11.384Z,28.30
2022-08-19T05:42:39.208Z,21.00
2022-08-19T05:45:08.132Z,20.38
2022-08-19T05:47:36.053Z,23.13
2022-08-19T05:50:09.555Z,24.83
2022-08-19T05:52:39.266Z,22.85
2022-08-19T05:55:11.617Z,24.75
2022-08-19T05:57:38.843Z,19.88
2022-08-19T06:00:11.715Z,21.95
2022-08-19T06:02:39.084Z,21.45
2022-08-19T06:05:08.218Z,18.65
2022-08-19T06:10:10.543Z,19.23
2022-08-19T06:12:38.428Z,19.83
2022-08-19T06:15:14.809Z,22.80
2022-08-19T06:17:44.425Z,24.33
2022-08-19T06:20:15.420Z,24.13
2022-08-19T06:22:46.338Z,19.92
2022-08-19T06:25:15.213Z,21.25
2022-08-19T06:28:14.160Z,19.25
2022-08-19T06:30:30.049Z,19.92
2022-08-19T06:32:57.073Z,22.13
2022-08-19T06:35:24.217Z,19.77
2022-08-19T06:37:51.270Z,20.35
2022-08-19T06:40:18.394Z,22.10
2022-08-19T06:42:54.217Z,23.63
2022-08-19T06:45:35.397Z,23.27
2022-08-19T06:48:03.427Z,20.45
2022-08-19T06:50:30.364Z,26.17
2022-08-19T06:52:57.612Z,25.85
2022-08-19T06:55:31.135Z,24.13
2022-08-19T06:58:04.977Z,26.58
2022-08-19T07:03:07.682Z,22.85
2022-08-19T07:05:45.440Z,27.50
2022-08-19T07:08:14.081Z,22.67
2022-08-19T07:10:45.872Z,26.50
2022-08-19T07:13:12.940Z,25.98
2022-08-19T07:15:40.001Z,24.58
2022-08-19T07:18:06.977Z,22.60
2022-08-19T07:20:40.101Z,20.20
2022-08-19T07:23:09.942Z,21.80
2022-08-19T07:25:43.516Z,24.13
2022-08-19T07:28:23.861Z,21.17
2022-08-19T07:30:52.096Z,23.73
2022-08-19T07:33:20.290Z,20.95
2022-08-19T07:35:47.226Z,30.08
2022-08-19T07:38:14.433Z,20.60
2022-08-19T07:40:47.545Z,23.15
2022-08-19T07:43:17.970Z,23.35
2022-08-19T07:45:46.235Z,23.25
2022-08-19T07:48:13.494Z,23.23
2022-08-19T07:50:40.385Z,23.48
2022-08-19T07:53:07.344Z,19.15
2022-08-19T07:55:40.513Z,17.20
2022-08-19T07:58:13.440Z,18.52
2022-08-19T08:00:40.981Z,14.88
2022-08-19T08:03:09.676Z,20.83
2022-08-19T08:05:55.189Z,16.80
2022-08-19T08:08:44.203Z,21.90
2022-08-19T08:11:18.002Z,18.92
2022-08-19T08:14:01.209Z,16.60
2022-08-19T08:16:39.538Z,17.88
2022-08-19T08:19:18.189Z,18.65
2022-08-19T08:21:51.210Z,12.82
2022-08-19T08:24:18.994Z,15.75
2022-08-19T08:26:46.760Z,17.60
2022-08-19T08:29:20.578Z,16.23
2022-08-19T08:31:48.707Z,13.27
2022-08-19T08:34:25.711Z,15.70
2022-08-19T08:36:53.129Z,19.52
2022-08-19T08:39:22.452Z,20.33
2022-08-19T08:42:24.011Z,12.27
2022-08-19T08:45:05.325Z,11.38
2022-08-19T08:47:38.218Z,18.02
2022-08-19T08:50:18.221Z,16.08
2022-08-19T08:52:54.516Z,17.38
2022-08-19T08:55:27.938Z,11.68
2022-08-19T08:58:27.543Z,12.13
2022-08-19T09:00:54.457Z,14.10
2022-08-19T09:03:27.014Z,12.02
2022-08-19T09:06:03.169Z,12.88
2022-08-19T09:08:52.163Z,13.23
2022-08-19T09:11:44.450Z,14.07
2022-08-19T09:14:52.064Z,12.50
2022-08-19T09:17:29.223Z,11.23
2022-08-19T09:20:09.114Z,11.35
2022-08-19T09:22:38.869Z,13.73
2022-08-19T09:25:10.144Z,10.05
2022-08-19T09:27:42.886Z,12.52
2022-08-19T09:30:22.688Z,12.90
2022-08-19T09:32:52.751Z,14.13
2022-08-19T09:35:26.312Z,10.88
2022-08-19T09:37:59.617Z,9.50
2022-08-19T09:40:29.963Z,12.70
2022-08-19T09:43:03.418Z,9.50
2022-08-19T09:45:37.062Z,10.05
2022-08-19T09:48:04.531Z,5.63
2022-08-19T09:50:34.658Z,8.70
2022-08-19T09:53:01.921Z,6.90
2022-08-19T09:55:31.742Z,8.75
2022-08-19T09:58:02.337Z,6.35
2022-08-19T10:00:29.741Z,8.18
2022-08-19T10:02:56.717Z,6.22
2022-08-19T10:05:42.426Z,8.30
2022-08-19T10:08:13.404Z,8.23
2022-08-19T10:10:46.222Z,8.75
2022-08-19T10:13:17.553Z,6.30
2022-08-19T10:15:48.205Z,4.80
2022-08-19T10:18:19.093Z,5.00
2022-08-19T10:20:51.322Z,4.38
2022-08-19T10:23:20.840Z,5.38
2022-08-19T10:25:48.980Z,6.68
2022-08-19T10:28:16.357Z,8.60
2022-08-19T10:30:47.845Z,6.93
2022-08-19T10:33:16.125Z,4.70
2022-08-19T10:36:11.188Z,6.05
2022-08-19T10:38:39.017Z,5.13
2022-08-19T10:41:31.567Z,5.95
2022-08-19T10:44:06.601Z,5.38
2022-08-19T10:46:37.263Z,7.85
2022-08-19T10:49:06.401Z,6.38
2022-08-19T10:51:52.928Z,4.65
2022-08-19T10:54:29.529Z,2.60
2022-08-19T10:57:00.225Z,4.47
2022-08-19T10:59:35.291Z,4.65
2022-08-19T11:02:05.825Z,5.32
2022-08-19T11:04:34.172Z,5.93
2022-08-19T11:07:04.351Z,4.10
2022-08-19T11:09:34.242Z,4.13
2022-08-19T11:12:02.787Z,3.90
2022-08-19T11:14:34.053Z,3.80
2022-08-19T11:17:03.259Z,5.15
2022-08-19T11:19:30.300Z,9.07
2022-08-19T11:21:57.993Z,7.32
2022-08-19T11:24:28.454Z,6.43
2022-08-19T11:27:03.559Z,5.03
2022-08-19T11:29:30.517Z,7.50
2022-08-19T11:31:57.524Z,5.78
2022-08-19T11:34:28.563Z,7.85
2022-08-19T11:37:00.526Z,7.93
2022-08-19T11:39:31.567Z,8.05
2022-08-19T11:42:03.866Z,8.45
2022-08-19T11:44:31.444Z,6.90
2022-08-19T11:46:58.732Z,8.07
2022-08-19T11:49:37.123Z,6.90
2022-08-19T11:52:04.361Z,6.10
2022-08-19T11:54:31.952Z,6.43
2022-08-19T11:56:58.993Z,5.13
2022-08-19T11:59:27.750Z,6.50
2022-08-19T12:01:54.679Z,4.03
2022-08-19T12:04:21.733Z,3.72
2022-08-19T12:06:49.120Z,4.15
2022-08-19T12:09:16.500Z,8.63
2022-08-19T12:11:43.469Z,5.07
2022-08-19T12:14:14.504Z,4.93
2022-08-19T12:16:44.801Z,8.10
2022-08-19T12:19:21.749Z,5.88
2022-08-19T12:21:50.578Z,7.22
2022-08-19T12:24:23.853Z,7.75
2022-08-19T12:26:52.534Z,4.45
2022-08-19T12:29:23.801Z,6.90
2022-08-19T12:31:52.227Z,9.32
2022-08-19T12:34:21.048Z,6.07
2022-08-19T12:36:50.269Z,6.20
2022-08-19T12:39:17.459Z,6.28
2022-08-19T12:41:51.351Z,5.13
2022-08-19T12:44:28.926Z,7.22
2022-08-19T12:47:05.363Z,4.05
2022-08-19T12:49:53.214Z,4.90
2022-08-19T12:52:23.863Z,15.73
2022-08-19T12:54:54.149Z,11.52
2022-08-19T12:57:32.165Z,8.43
2022-08-19T13:00:11.734Z,5.53
2022-08-19T13:02:50.605Z,5.70
2022-08-19T13:05:23.579Z,8.05
2022-08-19T13:07:53.529Z,6.75
2022-08-19T13:10:22.620Z,11.10
2022-08-19T13:12:52.568Z,9.32
2022-08-19T13:15:23.934Z,8.93
2022-08-19T13:17:53.728Z,7.35
2022-08-19T13:20:21.941Z,5.93
2022-08-19T13:22:49.771Z,3.75
2022-08-19T13:25:19.483Z,6.95
2022-08-19T13:27:48.195Z,5.38
2022-08-19T13:30:36.486Z,8.25
2022-08-19T13:33:14.978Z,5.28
2022-08-19T13:35:56.977Z,4.75
2022-08-19T13:38:24.856Z,9.73
2022-08-19T13:40:54.391Z,7.18
2022-08-19T13:43:24.622Z,6.05
2022-08-19T13:45:57.106Z,4.55
2022-08-19T13:48:28.026Z,4.75
2022-08-19T13:51:01.860Z,4.55
2022-08-19T13:53:28.856Z,6.20
2022-08-19T13:55:55.769Z,7.90
2022-08-19T13:58:23.632Z,3.88
2022-08-19T14:00:50.815Z,4.20
2022-08-19T14:03:17.850Z,6.22
2022-08-19T14:05:44.906Z,5.03
2022-08-19T14:08:13.235Z,5.10
2022-08-19T14:10:40.329Z,4.82
2022-08-19T14:13:07.335Z,4.97
2022-08-19T14:15:34.420Z,3.70
2022-08-19T14:18:01.702Z,6.55
2022-08-19T14:20:29.018Z,6.13
2022-08-19T14:22:56.703Z,6.70
2022-08-19T14:25:28.925Z,6.82
2022-08-19T14:27:57.466Z,8.45
2022-08-19T14:30:32.121Z,7.05
2022-08-19T14:33:01.937Z,7.07
2022-08-19T14:35:31.343Z,6.15
2022-08-19T14:37:59.032Z,7.30
2022-08-19T14:40:30.482Z,7.75
2022-08-19T14:43:04.689Z,9.27
2022-08-19T14:45:40.813Z,5.13
2022-08-19T14:48:12.441Z,5.75
2022-08-19T14:50:46.210Z,6.53
2022-08-19T14:53:13.392Z,7.40
2022-08-19T14:55:47.489Z,7.18
2022-08-19T14:58:29.184Z,5.82
2022-08-19T15:01:00.147Z,4.72
2022-08-19T15:03:27.699Z,5.00
2022-08-19T15:05:55.009Z,7.40
2022-08-19T15:08:25.698Z,6.45
2022-08-19T15:10:53.839Z,4.57
2022-08-19T15:13:20.903Z,9.95
2022-08-19T15:15:48.933Z,9.48
2022-08-19T15:18:15.949Z,4.50
2022-08-19T15:20:46.794Z,9.98
2022-08-19T15:23:16.368Z,6.95
2022-08-19T15:25:44.423Z,9.02
2022-08-19T15:28:12.197Z,7.13
2022-08-19T15:30:41.349Z,7.85
2022-08-19T15:33:08.692Z,7.78
2022-08-19T15:35:35.736Z,5.05
2022-08-19T15:38:02.859Z,7.95
2022-08-19T15:40:29.841Z,8.30
2022-08-19T15:42:58.782Z,7.88
2022-08-19T15:45:32.615Z,7.72
2022-08-19T15:48:01.810Z,8.25
2022-08-19T15:50:31.916Z,7.90
2022-08-19T15:53:04.715Z,11.80
2022-08-19T15:55:35.505Z,8.02
2022-08-19T15:58:30.010Z,4.35
2022-08-19T16:01:23.614Z,3.28
2022-08-19T16:04:14.885Z,2.67
2022-08-19T16:06:56.864Z,4.20
2022-08-19T16:09:29.057Z,3.78
2022-08-19T16:12:02.540Z,1.90
2022-08-19T16:14:33.165Z,2.35
2022-08-19T16:17:00.464Z,3.25
2022-08-19T16:19:27.546Z,1.85
2022-08-19T16:21:56.849Z,2.00
2022-08-19T16:24:27.430Z,4.05
2022-08-19T16:26:55.917Z,2.45
2022-08-19T16:29:33.870Z,4.35
2022-08-19T16:32:10.392Z,4.55
2022-08-19T16:34:41.817Z,3.08
2022-08-19T16:37:10.141Z,5.35
2022-08-19T16:39:37.446Z,2.75
2022-08-19T16:42:07.485Z,2.90
2022-08-19T16:44:36.479Z,3.38
2022-08-19T16:47:03.885Z,2.65
2022-08-19T16:49:53.298Z,3.20
2022-08-19T16:52:19.911Z,2.58
2022-08-19T16:54:48.057Z,3.22
2022-08-19T16:57:15.104Z,4.85
2022-08-19T16:59:43.699Z,4.78
2022-08-19T17:02:19.197Z,4.07
2022-08-19T17:04:57.726Z,2.65
2022-08-19T17:07:33.309Z,3.10
2022-08-19T17:10:02.353Z,2.80
2022-08-19T17:12:32.010Z,2.90
2022-08-19T17:15:02.497Z,2.95
2022-08-19T17:17:31.118Z,2.95
2022-08-19T17:20:00.423Z,5.68
2022-08-19T17:22:27.989Z,4.22
2022-08-19T17:24:56.436Z,2.25
2022-08-19T17:27:27.200Z,2.97
2022-08-19T17:29:59.949Z,1.55
2022-08-19T17:32:27.335Z,2.55
2022-08-19T17:34:54.453Z,1.45
2022-08-19T17:37:21.596Z,3.00
2022-08-19T17:39:48.765Z,5.35
2022-08-19T17:42:15.821Z,3.10
2022-08-19T17:44:44.838Z,4.80
2022-08-19T17:47:17.718Z,1.27
2022-08-19T17:49:44.625Z,3.10
2022-08-19T17:52:11.876Z,2.45
2022-08-19T17:54:38.876Z,2.72
2022-08-19T17:57:06.092Z,2.33
2022-08-19T17:59:33.067Z,3.22
2022-08-19T18:02:00.302Z,5.13
2022-08-19T18:04:30.024Z,3.80
2022-08-19T18:06:57.473Z,4.97
2022-08-19T18:09:42.528Z,3.58
2022-08-19T18:12:16.368Z,4.15
2022-08-19T18:14:43.537Z,1.88
2022-08-19T18:17:13.981Z,2.72
2022-08-19T18:19:43.762Z,3.08
2022-08-19T18:22:39.448Z,4.55
2022-08-19T18:25:14.116Z,6.25
2022-08-19T18:27:43.404Z,1.38
2022-08-19T18:30:11.961Z,1.92
2022-08-19T18:32:40.054Z,3.33
2022-08-19T18:35:14.993Z,4.70
2022-08-19T18:37:44.002Z,2.13
2022-08-19T18:40:34.211Z,2.88
2022-08-19T18:43:19.553Z,5.22
2022-08-19T18:46:07.261Z,4.47
2022-08-19T18:48:53.994Z,4.25
2022-08-19T18:51:24.195Z,2.58
2022-08-19T18:53:53.479Z,5.68
2022-08-19T18:56:21.499Z,6.60
2022-08-19T18:58:50.411Z,5.63
2022-08-19T19:01:21.758Z,4.40
2022-08-19T19:03:53.388Z,6.60
2022-08-19T19:06:28.929Z,5.72
2022-08-19T19:08:56.965Z,4.60
2022-08-19T19:11:33.952Z,4.45
2022-08-19T19:14:02.591Z,4.53
2022-08-19T19:16:31.410Z,3.97
2022-08-19T19:18:59.205Z,7.97
2022-08-19T19:21:26.863Z,3.88
2022-08-19T19:23:55.485Z,2.83
2022-08-19T19:26:22.836Z,4.60
2022-08-19T19:28:51.406Z,3.47
2022-08-19T19:31:26.566Z,5.85
2022-08-19T19:33:56.038Z,4.68
2022-08-19T19:36:24.025Z,6.30
2022-08-19T19:38:51.260Z,7.07
2022-08-19T19:41:25.067Z,6.28
2022-08-19T19:44:29.379Z,4.15
2022-08-19T19:46:48.222Z,5.82
2022-08-19T19:49:15.392Z,1.92
2022-08-19T19:51:43.480Z,5.10
2022-08-19T19:54:13.741Z,3.80
2022-08-19T19:56:45.066Z,3.58
2022-08-19T19:59:12.884Z,3.03
2022-08-19T20:01:44.900Z,2.30
2022-08-19T20:04:17.003Z,5.43
2022-08-19T20:06:46.093Z,6.10
2022-08-19T20:09:19.638Z,3.58
2022-08-19T20:11:55.884Z,3.25
2022-08-19T20:14:25.403Z,2.65
2022-08-19T20:16:53.902Z,6.10
2022-08-19T20:19:26.038Z,5.70
2022-08-19T20:21:55.887Z,2.40
2022-08-19T20:24:27.506Z,4.65
2022-08-19T20:26:54.523Z,2.30
2022-08-19T20:29:38.713Z,2.42
2022-08-19T20:32:08.546Z,2.45
2022-08-19T20:34:36.112Z,4.20
2022-08-19T20:37:09.270Z,2.60
2022-08-19T20:39:39.706Z,3.85
2022-08-19T20:42:06.822Z,5.47
2022-08-19T20:44:33.874Z,3.38
2022-08-19T20:47:03.846Z,2.28
2022-08-19T20:49:32.118Z,7.43
2022-08-19T20:51:59.207Z,4.25
2022-08-19T20:54:26.982Z,5.90
2022-08-19T20:56:55.732Z,6.30
2022-08-19T20:59:23.768Z,4.28
2022-08-19T21:01:51.952Z,5.88
2022-08-19T21:04:21.252Z,6.18
2022-08-19T21:06:50.225Z,7.10
2022-08-19T21:09:17.546Z,9.10
2022-08-19T21:11:44.516Z,5.45
2022-08-19T21:14:11.944Z,5.57
2022-08-19T21:16:39.177Z,6.07
2022-08-19T21:19:06.420Z,9.02
2022-08-19T21:21:33.446Z,8.98
2022-08-19T21:24:01.435Z,6.85
2022-08-19T21:26:28.365Z,8.38
2022-08-19T21:28:55.370Z,7.28
2022-08-19T21:31:22.730Z,7.47
2022-08-19T21:33:49.669Z,8.80
2022-08-19T21:36:17.284Z,8.38
2022-08-19T21:38:44.215Z,9.50
2022-08-19T21:41:11.266Z,6.43
2022-08-19T21:43:39.122Z,6.78
2022-08-19T21:46:07.009Z,11.32
2022-08-19T21:48:34.226Z,11.32
2022-08-19T21:51:01.199Z,11.25
2022-08-19T21:53:33.269Z,9.18
2022-08-19T21:56:01.843Z,13.35
2022-08-19T21:58:30.669Z,17.17
2022-08-19T22:01:01.641Z,12.43
2022-08-19T22:03:29.411Z,15.43
2022-08-19T22:05:56.419Z,13.93
2022-08-19T22:08:23.434Z,10.57
2022-08-19T22:10:50.808Z,18.95
2022-08-19T22:13:21.394Z,11.50
2022-08-19T22:15:52.484Z,15.77
2022-08-19T22:18:19.416Z,14.80
2022-08-19T22:20:48.029Z,15.95
2022-08-19T22:23:15.089Z,18.25
2022-08-19T22:25:46.366Z,16.58
2022-08-19T22:28:18.724Z,14.15
2022-08-19T22:30:47.538Z,15.38
2022-08-19T22:33:21.277Z,21.50
2022-08-19T22:35:48.875Z,15.50
2022-08-19T22:38:16.431Z,18.08
2022-08-19T22:40:47.620Z,18.90
2022-08-19T22:43:21.481Z,19.90
2022-08-19T22:45:50.890Z,17.15
2022-08-19T22:48:22.489Z,17.48
2022-08-19T22:51:09.814Z,12.80
2022-08-19T22:53:41.224Z,14.20
2022-08-19T22:56:14.595Z,12.15
2022-08-19T22:58:42.490Z,14.07
2022-08-19T23:01:27.178Z,14.85
2022-08-19T23:03:57.329Z,13.35
2022-08-19T23:06:33.216Z,12.55
2022-08-19T23:09:05.238Z,14.18
2022-08-19T23:11:41.985Z,22.40
2022-08-19T23:14:10.408Z,15.70
2022-08-19T23:16:37.330Z,18.70
2022-08-19T23:19:07.208Z,19.45
2022-08-19T23:21:36.294Z,14.90
2022-08-19T23:24:04.344Z,16.90
2022-08-19T23:26:35.564Z,17.73
2022-08-19T23:29:22.518Z,26.10
2022-08-19T23:31:49.776Z,17.67
2022-08-19T23:34:20.445Z,20.98
2022-08-19T23:36:50.921Z,15.85
2022-08-19T23:39:18.142Z,22.80
2022-08-19T23:41:45.052Z,17.88
2022-08-19T23:44:14.438Z,15.25
2022-08-19T23:46:54.342Z,14.43
2022-08-19T23:49:21.705Z,13.65
2022-08-19T23:51:48.633Z,17.40
2022-08-19T23:54:15.522Z,20.45
2022-08-19T23:56:42.537Z,20.15
2022-08-19T23:59:11.850Z,23.00
